< < Back
Terminal Aerodrome Forecast


Current Version              Previous Versions:   1  2  3  4  5  6  7  8  9  

Terminal Aerodrome Forecast

292
FTUS42 KCHS 152300
TAFSAV
TAF
KSAV 152323Z 1600/1624 30015G25KT P6SM SCT015 BKN020
     FM160200 33012G18KT P6SM SKC
     FM160700 36012G20KT P6SM SKC
     FM161200 03013G19KT P6SM SKC
     FM162000 06012G18KT P6SM SKC=

Latest METAR

181
SAUS80 KWBC 160400
MTRSAV
METAR KSAV 160353Z 29011KT 10SM SCT160 SCT250 11/04 A2999 RMK AO2 SLP155
LAST AUGMENTED OBSERVATION UNTIL 1000Z T01060039


USA.gov is the U.S. government's official web portal to all federal, state and local government web resources and services.